Rockford, IL (61101)

7:48 PM CST on March 01, 2015 (GMT -0600)
Rockford Plaza | Change Station
CLOSE
Current Station
Personal Weather Station
Location: Rockford, IL
Elevation: 787 ft
Nearby Weather Stations

Elev 787 ft 42.27 °N, 89.06 °W | Updated 15 seconds ago

Clear
Clear
21.4 °F
Feels Like 16 °F
N
3.8
Wind Variable Wind from WSW
Gusts 3.8 mph

Today
High -- | Low -- °F
--% Chance of Precip.
Yesterday
High -- | Low -- °F
Precip. -- in
6:32 AM 5:46 PM
Waxing Gibbous, 88% visible
Pressure 30.34 in
Visibility 10.0 miles
Clouds Few 2800 ft
Windchill 16 °F
Dew Point 5 °F
Humidity 49%
Rainfall 0.03 in
Snow Depth Not available.
UV 0 out of 12
Pollen .50 out of 12
Air Quality Not available.
Flu Activity Not available.
METAR KRFD 020054Z 25009KT 10SM FEW028 M06/M10 A3030 RMK AO2 SLP274 T10561100

More Conditions Fewer Conditions

Pressure 30.34 in
Visibility 10.0 miles
Clouds Few 2800 ft
Windchill 16 °F
Dew Point 5 °F
Humidity 49%
Rainfall 0.03 in
Snow Depth Not available.
UV 0 out of 12
Pollen .50 out of 12
Air Quality Not available.
Flu Activity Not available.
METAR KRFD 020054Z 25009KT 10SM FEW028 M06/M10 A3030 RMK AO2 SLP274 T10561100

More Conditions Fewer Conditions

10-Day Weather Forecast

Almanac

Astronomy

Mar. 01, 2015 Rise Set
Actual Time
Civil Twilight
Nautical Twilight
Astronomical Twilight
Moon
Length of Visible Light
Length of Day
Tomorrow will be .
, % of the Moon is Illuminated

Today's Extremes

State Highs State Lows

Community

WunderPhotos

Upload Photos

1,801,677 photos uploaded!

WunderBlogs® & News

Nearby

Air Quality

  Air Quality AQ Index Pollutant
Not available.

Snow Depth

Station Depth Elevation

Earthquake Activity

City Distance Mag. Time & Date
Minimum magnitude displayed is 2.5.

Coastal Water Temperatures

Place Temperature

Nearby Weather Stations